createdAt,value
2023-03-26T00:01:14.066Z,5.93
2023-03-26T00:03:41.716Z,6.00
2023-03-26T00:06:09.659Z,6.30
2023-03-26T00:08:37.648Z,6.87
2023-03-26T00:11:08.084Z,5.33
2023-03-26T00:13:35.394Z,5.83
2023-03-26T00:16:02.158Z,5.27
2023-03-26T00:18:31.712Z,5.50
2023-03-26T00:20:58.692Z,5.47
2023-03-26T00:23:25.620Z,6.80
2023-03-26T00:25:52.470Z,5.63
2023-03-26T00:28:21.628Z,7.77
2023-03-26T00:30:48.871Z,5.30
2023-03-26T00:33:17.575Z,6.27
2023-03-26T00:35:48.066Z,5.60
2023-03-26T00:38:14.836Z,5.97
2023-03-26T00:40:48.139Z,5.93
2023-03-26T00:43:21.010Z,5.50
2023-03-26T00:45:54.838Z,6.40
2023-03-26T00:48:28.958Z,6.83
2023-03-26T00:51:01.539Z,8.10
2023-03-26T00:53:28.286Z,7.13
2023-03-26T00:56:00.420Z,7.80
2023-03-26T00:58:27.797Z,7.67
2023-03-26T01:00:59.331Z,6.57
2023-03-26T01:03:27.596Z,7.67
2023-03-26T01:06:11.404Z,6.23
2023-03-26T01:08:39.211Z,8.10
2023-03-26T01:11:16.106Z,5.53
2023-03-26T01:13:44.855Z,5.70
2023-03-26T01:16:20.367Z,6.33
2023-03-26T01:18:48.791Z,6.87
2023-03-26T01:21:22.632Z,7.03
2023-03-26T01:23:57.251Z,6.13
2023-03-26T01:26:29.976Z,6.27
2023-03-26T01:28:57.421Z,5.90
2023-03-26T01:31:29.868Z,7.37
2023-03-26T01:34:14.712Z,6.50
2023-03-26T01:36:41.352Z,5.13
2023-03-26T01:39:19.437Z,5.50
2023-03-26T01:41:50.101Z,8.07
2023-03-26T02:17:03.113Z,8.23
2023-03-26T02:19:29.952Z,7.43
2023-03-26T02:21:59.776Z,8.17
2023-03-26T02:24:27.788Z,8.23
2023-03-26T02:26:58.157Z,7.47
2023-03-26T02:29:26.606Z,7.70
2023-03-26T02:31:53.998Z,7.90
2023-03-26T02:34:20.953Z,8.27
2023-03-26T02:36:51.035Z,8.60
2023-03-26T02:39:18.286Z,8.70
2023-03-26T02:41:52.552Z,7.43
2023-03-26T02:44:19.612Z,10.27
2023-03-26T02:47:12.112Z,7.00
2023-03-26T02:50:09.139Z,7.80
2023-03-26T02:52:56.068Z,6.87
2023-03-26T02:55:22.973Z,7.87
2023-03-26T02:57:52.023Z,7.97
2023-03-26T03:00:22.723Z,10.33
2023-03-26T03:02:49.787Z,10.00
2023-03-26T03:05:32.155Z,8.37
2023-03-26T03:08:18.684Z,7.07
2023-03-26T03:11:09.445Z,6.93
2023-03-26T03:13:44.520Z,6.23
2023-03-26T03:16:12.387Z,7.83
2023-03-26T03:18:39.015Z,7.80
2023-03-26T03:21:06.379Z,5.97
2023-03-26T03:23:33.176Z,7.57
2023-03-26T03:26:13.238Z,6.40
2023-03-26T03:28:41.929Z,6.90
2023-03-26T03:31:11.465Z,7.60
2023-03-26T03:33:38.331Z,7.67
2023-03-26T03:36:19.958Z,8.47
2023-03-26T03:38:48.220Z,8.30
2023-03-26T03:41:19.196Z,6.87
2023-03-26T03:43:46.972Z,7.03
2023-03-26T03:46:18.287Z,5.50
2023-03-26T03:48:50.475Z,6.00
2023-03-26T03:51:22.415Z,6.00
2023-03-26T03:54:04.070Z,6.50
2023-03-26T03:56:45.850Z,7.60
2023-03-26T03:59:31.322Z,10.40
2023-03-26T04:01:59.166Z,6.87
2023-03-26T04:04:40.257Z,5.80
2023-03-26T04:07:10.914Z,7.63
2023-03-26T04:09:56.253Z,6.40
2023-03-26T04:12:24.878Z,6.03
2023-03-26T04:15:01.055Z,5.23
2023-03-26T04:17:30.630Z,6.20
2023-03-26T04:19:57.600Z,4.63
2023-03-26T04:22:34.775Z,4.67
2023-03-26T04:25:05.347Z,4.57
2023-03-26T04:27:38.053Z,5.17
2023-03-26T04:30:20.669Z,6.17
2023-03-26T04:33:09.113Z,5.43
2023-03-26T04:35:41.825Z,5.17
2023-03-26T04:38:10.792Z,7.60
2023-03-26T04:40:43.320Z,7.40
2023-03-26T04:43:18.647Z,4.33
2023-03-26T04:45:52.475Z,5.97
2023-03-26T04:48:22.090Z,5.10
2023-03-26T04:50:48.900Z,6.17
2023-03-26T04:53:18.434Z,5.60
2023-03-26T04:56:30.229Z,5.07
2023-03-26T04:59:26.194Z,6.33
2023-03-26T05:01:55.319Z,5.10
2023-03-26T05:04:25.038Z,5.27
2023-03-26T05:06:52.849Z,6.93
2023-03-26T05:09:41.725Z,7.50
2023-03-26T05:12:12.358Z,7.93
2023-03-26T05:14:53.443Z,7.87
2023-03-26T05:17:31.207Z,7.83
2023-03-26T05:19:58.295Z,7.47
2023-03-26T05:22:25.331Z,6.43
2023-03-26T05:25:10.090Z,8.00
2023-03-26T05:27:36.911Z,7.17
2023-03-26T05:30:04.023Z,4.47
2023-03-26T05:32:38.250Z,5.17
2023-03-26T05:35:07.822Z,2.93
2023-03-26T05:37:34.947Z,6.23
2023-03-26T05:40:09.943Z,2.90
2023-03-26T05:42:42.988Z,2.13
2023-03-26T05:45:33.190Z,1.93
2023-03-26T05:48:07.209Z,2.97
2023-03-26T05:50:34.020Z,2.73
2023-03-26T05:53:00.854Z,3.13
2023-03-26T05:55:46.186Z,2.67
2023-03-26T05:58:32.486Z,4.30
2023-03-26T06:01:25.868Z,2.50
2023-03-26T06:04:24.986Z,3.10
2023-03-26T06:07:12.142Z,2.77
2023-03-26T06:09:42.709Z,3.07
2023-03-26T06:12:11.044Z,2.30
2023-03-26T06:14:40.305Z,3.27
2023-03-26T06:17:14.238Z,3.53
2023-03-26T06:19:59.884Z,4.40
2023-03-26T06:22:36.215Z,2.73
2023-03-26T06:25:26.246Z,4.13
2023-03-26T06:28:13.292Z,4.10
2023-03-26T06:30:53.675Z,3.43
2023-03-26T06:33:31.202Z,4.57
2023-03-26T06:36:00.691Z,3.83
2023-03-26T06:38:27.530Z,4.67
2023-03-26T06:40:54.675Z,4.07
2023-03-26T06:43:39.747Z,3.80
2023-03-26T06:46:26.531Z,4.07
2023-03-26T06:49:11.595Z,4.47
2023-03-26T06:51:53.696Z,4.43
2023-03-26T06:54:58.939Z,4.23
2023-03-26T06:57:49.662Z,4.87
2023-03-26T07:00:36.654Z,4.20
2023-03-26T07:03:22.616Z,4.10
2023-03-26T07:06:07.720Z,4.10
2023-03-26T07:08:57.656Z,4.00
2023-03-26T07:11:42.909Z,5.27
2023-03-26T07:14:30.466Z,3.23
2023-03-26T07:17:15.538Z,4.47
2023-03-26T07:19:53.749Z,4.47
2023-03-26T07:22:24.735Z,3.47
2023-03-26T07:25:06.701Z,4.27
2023-03-26T07:28:34.549Z,3.77
2023-03-26T07:31:27.404Z,4.80
2023-03-26T07:34:26.801Z,3.73
2023-03-26T07:37:28.825Z,3.67
2023-03-26T07:40:20.124Z,2.50
2023-03-26T07:43:25.478Z,1.73
2023-03-26T07:46:15.857Z,1.00
2023-03-26T07:48:55.058Z,0.80
2023-03-26T07:51:42.238Z,1.23
2023-03-26T07:54:24.616Z,0.80
2023-03-26T07:57:28.603Z,1.10
2023-03-26T08:00:37.592Z,2.10
2023-03-26T08:03:12.962Z,1.40
2023-03-26T08:06:15.195Z,2.37
2023-03-26T08:08:52.639Z,1.50
2023-03-26T08:11:38.208Z,0.93
2023-03-26T08:14:16.148Z,1.07
2023-03-26T08:16:56.723Z,0.70
2023-03-26T08:19:37.665Z,0.40
2023-03-26T08:22:21.779Z,1.07
2023-03-26T08:25:29.745Z,1.87
2023-03-26T08:27:59.219Z,1.67
2023-03-26T08:30:26.852Z,1.10
2023-03-26T08:33:05.507Z,1.10
2023-03-26T08:35:35.273Z,1.60
2023-03-26T08:38:02.182Z,1.83
2023-03-26T08:40:40.057Z,2.53
2023-03-26T08:43:06.837Z,2.00
2023-03-26T08:45:41.295Z,2.97
2023-03-26T08:48:27.032Z,3.27
2023-03-26T08:51:14.026Z,0.90
2023-03-26T08:53:59.234Z,0.77
2023-03-26T08:56:40.244Z,0.80
2023-03-26T08:59:12.951Z,1.33
2023-03-26T09:01:54.593Z,0.90
2023-03-26T09:04:34.232Z,1.00
2023-03-26T09:07:20.129Z,1.43
2023-03-26T09:10:01.863Z,0.70
2023-03-26T09:12:28.799Z,1.53
2023-03-26T09:14:55.582Z,0.77
2023-03-26T09:17:28.410Z,2.60
2023-03-26T09:19:56.812Z,1.77
2023-03-26T09:22:24.056Z,1.67
2023-03-26T09:25:10.622Z,1.20
2023-03-26T09:27:38.533Z,1.10
2023-03-26T09:30:21.890Z,1.27
2023-03-26T09:32:50.566Z,1.97
2023-03-26T09:35:36.525Z,2.77
2023-03-26T09:38:12.181Z,2.57
2023-03-26T09:40:48.724Z,2.30
2023-03-26T09:43:29.422Z,1.00
2023-03-26T09:46:01.883Z,1.47
2023-03-26T09:48:55.140Z,2.90
2023-03-26T09:51:22.145Z,1.70
2023-03-26T09:54:08.573Z,1.43
2023-03-26T09:56:51.056Z,3.30
2023-03-26T09:59:38.002Z,3.07
2023-03-26T10:02:12.111Z,3.30
2023-03-26T10:04:40.331Z,7.93
2023-03-26T10:07:26.110Z,7.17
2023-03-26T10:09:54.605Z,6.33
2023-03-26T10:12:29.940Z,6.37
2023-03-26T10:14:59.799Z,8.20
2023-03-26T10:17:26.532Z,6.27
2023-03-26T10:19:57.314Z,3.43
2023-03-26T10:22:24.952Z,5.67
2023-03-26T10:25:04.065Z,7.43
2023-03-26T10:27:34.441Z,10.10
2023-03-26T10:30:10.518Z,12.00
2023-03-26T10:32:49.642Z,5.97
2023-03-26T10:35:40.143Z,4.47
2023-03-26T10:38:10.048Z,5.23
2023-03-26T10:40:37.012Z,6.47
2023-03-26T10:43:22.235Z,8.10
2023-03-26T10:46:04.252Z,7.40
2023-03-26T10:48:34.267Z,7.80
2023-03-26T10:51:12.924Z,9.50
2023-03-26T10:53:41.792Z,6.83
2023-03-26T10:56:13.255Z,6.17
2023-03-26T10:58:48.359Z,5.30
2023-03-26T11:01:37.215Z,4.57
2023-03-26T11:04:11.116Z,3.97
2023-03-26T11:06:51.162Z,4.50
2023-03-26T11:09:44.502Z,6.17
2023-03-26T11:12:27.168Z,7.63
2023-03-26T11:14:58.665Z,5.60
2023-03-26T11:17:44.200Z,3.27
2023-03-26T11:20:19.567Z,4.33
2023-03-26T11:23:04.195Z,2.00
2023-03-26T11:25:31.874Z,2.30
2023-03-26T11:28:09.639Z,4.50
2023-03-26T11:30:46.380Z,2.60
2023-03-26T11:33:17.058Z,3.07
2023-03-26T11:35:51.777Z,3.63
2023-03-26T11:38:18.722Z,5.00
2023-03-26T11:40:49.023Z,4.77
2023-03-26T11:43:29.377Z,5.23
2023-03-26T11:45:58.190Z,5.83
2023-03-26T11:48:25.078Z,3.67
2023-03-26T11:50:54.266Z,4.80
2023-03-26T11:53:22.409Z,4.73
2023-03-26T11:56:15.121Z,3.90
2023-03-26T11:58:50.422Z,7.20
2023-03-26T12:01:19.315Z,5.63
2023-03-26T12:04:04.059Z,2.30
2023-03-26T12:06:34.388Z,2.13
2023-03-26T12:09:01.349Z,4.23
2023-03-26T12:11:29.070Z,2.57
2023-03-26T12:14:00.355Z,2.23
2023-03-26T12:16:27.615Z,3.10
2023-03-26T12:19:01.746Z,4.40
2023-03-26T12:21:28.610Z,1.90
2023-03-26T12:23:56.516Z,3.13
2023-03-26T12:26:40.911Z,4.00
2023-03-26T12:29:11.268Z,5.93
2023-03-26T12:31:51.133Z,26.00
2023-03-26T12:34:19.787Z,3.20
2023-03-26T12:36:53.549Z,3.63
2023-03-26T12:40:09.730Z,3.97
2023-03-26T12:44:46.829Z,3.97
2023-03-26T12:45:24.632Z,2.80
2023-03-26T12:47:58.863Z,3.77
2023-03-26T12:50:35.755Z,2.87
2023-03-26T12:53:08.019Z,4.37
2023-03-26T12:55:36.895Z,6.00
2023-03-26T12:58:17.424Z,4.10
2023-03-26T13:00:44.704Z,6.37
2023-03-26T13:03:12.245Z,3.23
2023-03-26T13:05:40.177Z,1.57
2023-03-26T13:08:25.952Z,3.03
2023-03-26T13:11:08.536Z,15.10
2023-03-26T13:13:39.603Z,1.93
2023-03-26T13:16:13.182Z,2.80
2023-03-26T13:19:06.645Z,2.93
2023-03-26T13:21:38.521Z,2.63
2023-03-26T13:24:08.141Z,2.53
2023-03-26T13:26:38.092Z,4.60
2023-03-26T13:29:23.785Z,2.80
2023-03-26T13:32:06.069Z,4.03
2023-03-26T13:34:38.044Z,1.63
2023-03-26T13:37:14.094Z,3.77
2023-03-26T13:40:01.406Z,5.00
2023-03-26T13:42:47.037Z,4.83
2023-03-26T13:45:23.180Z,4.90
2023-03-26T13:47:50.888Z,2.97
2023-03-26T13:50:17.812Z,2.57
2023-03-26T13:52:46.798Z,2.03
2023-03-26T13:55:25.449Z,3.30
2023-03-26T13:57:57.121Z,3.20
2023-03-26T14:00:27.572Z,2.57
2023-03-26T14:03:06.956Z,3.30
2023-03-26T14:05:35.570Z,3.57
2023-03-26T14:08:39.162Z,3.20
2023-03-26T14:11:11.078Z,4.07
2023-03-26T14:13:50.361Z,3.83
2023-03-26T14:16:36.115Z,2.57
2023-03-26T14:19:23.909Z,2.77
2023-03-26T14:21:54.929Z,1.60
2023-03-26T14:24:26.439Z,2.30
2023-03-26T14:27:09.953Z,2.90
2023-03-26T14:29:41.318Z,3.13
2023-03-26T14:32:42.860Z,2.87
2023-03-26T14:35:16.651Z,3.10
2023-03-26T14:38:01.989Z,1.67
2023-03-26T14:40:47.348Z,1.30
2023-03-26T14:43:17.483Z,3.10
2023-03-26T14:45:50.510Z,3.67
2023-03-26T14:48:17.393Z,2.90
2023-03-26T14:51:01.390Z,3.43
2023-03-26T14:53:29.754Z,2.50
2023-03-26T14:56:08.480Z,2.53
2023-03-26T14:58:53.628Z,3.73
2023-03-26T15:01:21.505Z,2.37
2023-03-26T15:04:00.196Z,2.60
2023-03-26T15:06:39.417Z,3.10
2023-03-26T15:09:24.941Z,2.80
2023-03-26T15:12:15.030Z,3.23
2023-03-26T15:14:51.116Z,2.77
2023-03-26T15:17:17.816Z,3.03
2023-03-26T15:19:44.520Z,1.00
2023-03-26T15:22:27.180Z,3.33
2023-03-26T15:25:12.570Z,3.63
2023-03-26T15:27:58.420Z,2.37
2023-03-26T15:30:44.133Z,3.90
2023-03-26T15:33:40.784Z,4.30
2023-03-26T15:36:28.370Z,2.77
2023-03-26T15:38:59.477Z,2.97
2023-03-26T15:41:26.469Z,7.73
2023-03-26T15:44:24.713Z,5.60
2023-03-26T15:46:56.390Z,6.77
2023-03-26T15:49:29.113Z,7.07
2023-03-26T15:51:55.933Z,6.37
2023-03-26T15:54:24.738Z,6.67
2023-03-26T15:57:08.868Z,12.67
2023-03-26T15:59:54.902Z,6.53
2023-03-26T16:02:27.988Z,8.23
2023-03-26T16:04:55.746Z,9.40
2023-03-26T16:07:39.205Z,10.17
2023-03-26T16:10:18.456Z,4.67
2023-03-26T16:12:46.793Z,8.87
2023-03-26T16:15:15.657Z,7.50
2023-03-26T16:18:01.360Z,7.47
2023-03-26T16:20:35.425Z,8.13
2023-03-26T16:23:04.613Z,12.23
2023-03-26T16:25:57.910Z,7.43
2023-03-26T16:28:27.965Z,6.07
2023-03-26T16:31:35.363Z,9.40
2023-03-26T16:34:05.867Z,5.67
2023-03-26T16:36:37.053Z,8.93
2023-03-26T16:39:05.043Z,9.13
2023-03-26T16:41:50.270Z,5.93
2023-03-26T16:44:24.338Z,7.70
2023-03-26T16:47:07.410Z,12.37
2023-03-26T16:49:47.172Z,7.57
2023-03-26T16:52:37.385Z,6.50
2023-03-26T16:55:05.484Z,9.57
2023-03-26T16:57:52.633Z,10.37
2023-03-26T17:00:38.287Z,6.50
2023-03-26T17:03:17.721Z,6.23
2023-03-26T17:05:58.069Z,8.97
2023-03-26T17:08:36.570Z,6.67
2023-03-26T17:11:23.111Z,4.30
2023-03-26T17:13:54.232Z,4.70
2023-03-26T17:16:28.950Z,5.83
2023-03-26T17:19:01.152Z,7.13
2023-03-26T17:21:45.965Z,6.10
2023-03-26T17:24:19.031Z,8.97
2023-03-26T17:27:04.179Z,9.17
2023-03-26T17:29:50.019Z,6.23
2023-03-26T17:32:17.739Z,10.10
2023-03-26T17:34:50.686Z,7.93
2023-03-26T17:37:17.456Z,11.20
2023-03-26T17:39:45.631Z,17.00
2023-03-26T17:42:16.519Z,8.50
2023-03-26T17:44:46.772Z,11.20
2023-03-26T17:47:26.585Z,6.40
2023-03-26T17:49:55.478Z,8.93
2023-03-26T17:52:34.451Z,11.43
2023-03-26T17:55:02.102Z,8.43
2023-03-26T17:57:42.084Z,11.47
2023-03-26T18:00:16.368Z,7.77
2023-03-26T18:02:47.280Z,7.57
2023-03-26T18:05:15.571Z,8.13
2023-03-26T18:07:45.267Z,7.90
2023-03-26T18:10:33.449Z,8.37
2023-03-26T18:13:20.152Z,8.10
2023-03-26T18:15:47.271Z,11.30
2023-03-26T18:18:23.531Z,15.87
2023-03-26T18:20:52.493Z,11.93
2023-03-26T18:23:21.324Z,9.57
2023-03-26T18:26:01.442Z,6.87
2023-03-26T18:28:34.343Z,8.90
2023-03-26T18:31:07.484Z,9.30
2023-03-26T18:33:45.707Z,7.63
2023-03-26T18:36:12.979Z,7.10
2023-03-26T18:38:42.425Z,9.03
2023-03-26T18:41:15.664Z,5.47
2023-03-26T18:43:44.200Z,6.13
2023-03-26T18:46:24.328Z,6.23
2023-03-26T19:07:19.554Z,8.73
2023-03-26T19:10:38.710Z,9.40
2023-03-26T19:14:05.417Z,8.60
2023-03-26T19:21:03.582Z,7.43
2023-03-26T19:23:33.803Z,10.00
2023-03-26T19:26:01.779Z,10.67
2023-03-26T19:28:29.832Z,7.80
2023-03-26T19:31:17.220Z,7.80
2023-03-26T19:33:44.316Z,7.13
2023-03-26T19:36:21.484Z,7.50
2023-03-26T19:38:48.330Z,8.60
2023-03-26T19:41:24.319Z,7.23
2023-03-26T19:43:53.438Z,8.37
2023-03-26T19:46:23.746Z,6.43
2023-03-26T19:48:52.035Z,5.57
2023-03-26T19:51:23.115Z,6.10
2023-03-26T19:53:53.097Z,6.27
2023-03-26T19:56:22.235Z,7.03
2023-03-26T19:58:50.297Z,9.87
2023-03-26T20:01:23.827Z,7.67
2023-03-26T20:03:51.709Z,4.83
2023-03-26T20:06:22.148Z,11.43
2023-03-26T20:08:53.232Z,8.23
2023-03-26T20:11:20.966Z,8.80
2023-03-26T20:13:47.764Z,9.60
2023-03-26T20:16:20.464Z,8.47
2023-03-26T20:18:51.008Z,11.00
2023-03-26T20:21:18.039Z,10.83
2023-03-26T20:23:44.791Z,8.17
2023-03-26T20:26:12.461Z,6.53
2023-03-26T20:28:47.878Z,9.23
2023-03-26T20:31:19.868Z,10.00
2023-03-26T20:33:48.635Z,5.37
2023-03-26T20:36:33.455Z,9.17
2023-03-26T20:39:02.615Z,7.27
2023-03-26T20:41:29.603Z,7.13
2023-03-26T20:43:57.009Z,6.27
2023-03-26T20:46:31.175Z,5.53
2023-03-26T20:48:59.845Z,7.67
2023-03-26T20:51:28.757Z,8.27
2023-03-26T20:53:56.330Z,6.23
2023-03-26T20:56:23.881Z,6.90
2023-03-26T20:59:03.684Z,7.80
2023-03-26T21:01:37.831Z,6.47
2023-03-26T21:04:05.696Z,9.23
2023-03-26T21:06:32.780Z,7.70
2023-03-26T21:08:59.640Z,8.23
2023-03-26T21:11:29.683Z,6.50
2023-03-26T21:14:05.849Z,5.73
2023-03-26T21:16:32.941Z,5.40
2023-03-26T21:18:59.665Z,8.43
2023-03-26T21:21:39.101Z,8.93
2023-03-26T21:24:12.756Z,10.73
2023-03-26T21:26:43.817Z,9.20
2023-03-26T21:29:11.837Z,5.93
2023-03-26T21:31:38.677Z,10.43
2023-03-26T21:34:09.649Z,7.30
2023-03-26T21:36:36.853Z,4.67
2023-03-26T21:39:05.170Z,10.27
2023-03-26T21:41:42.071Z,5.30
2023-03-26T21:44:09.005Z,6.93
2023-03-26T21:46:35.819Z,4.03
2023-03-26T21:49:02.805Z,6.30
2023-03-26T21:51:29.570Z,3.80
2023-03-26T21:53:56.425Z,3.17
2023-03-26T21:56:26.504Z,2.80
2023-03-26T21:58:54.722Z,1.80
2023-03-26T22:01:26.599Z,3.20
2023-03-26T22:03:55.583Z,4.57
2023-03-26T22:06:24.619Z,1.77
2023-03-26T22:08:52.321Z,3.03
2023-03-26T22:11:18.936Z,2.10
2023-03-26T22:13:45.700Z,2.47
2023-03-26T22:16:12.479Z,3.20
2023-03-26T22:18:39.246Z,1.73
2023-03-26T22:21:06.053Z,1.30
2023-03-26T22:23:34.350Z,2.10
2023-03-26T22:26:01.228Z,1.40
2023-03-26T22:28:27.972Z,1.37
2023-03-26T22:30:54.887Z,1.60
2023-03-26T22:33:21.695Z,2.97
2023-03-26T22:35:48.293Z,2.17
2023-03-26T22:38:17.071Z,2.53
2023-03-26T22:40:43.810Z,1.17
2023-03-26T22:43:10.527Z,1.30
2023-03-26T22:45:37.811Z,1.47
2023-03-26T22:48:04.956Z,2.57
2023-03-26T22:50:32.202Z,2.30
2023-03-26T22:52:59.045Z,2.80
2023-03-26T22:55:28.817Z,1.90
2023-03-26T22:57:59.602Z,1.80
2023-03-26T23:00:26.836Z,2.20
2023-03-26T23:02:55.972Z,2.70
2023-03-26T23:05:24.112Z,1.60
2023-03-26T23:07:52.295Z,3.70
2023-03-26T23:10:22.016Z,2.17
2023-03-26T23:12:49.713Z,3.50
2023-03-26T23:15:16.479Z,3.03
2023-03-26T23:17:43.205Z,2.50
2023-03-26T23:20:15.049Z,2.07
2023-03-26T23:22:42.671Z,1.17
2023-03-26T23:25:12.311Z,1.20
2023-03-26T23:27:40.343Z,0.70
2023-03-26T23:30:07.275Z,1.27
2023-03-26T23:32:37.832Z,0.67
2023-03-26T23:35:04.999Z,1.00
2023-03-26T23:37:35.082Z,1.43
2023-03-26T23:40:02.120Z,2.10
2023-03-26T23:42:29.587Z,1.37
2023-03-26T23:44:57.026Z,1.00
2023-03-26T23:47:23.866Z,0.97
2023-03-26T23:49:51.558Z,1.03
2023-03-26T23:52:18.326Z,1.70
2023-03-26T23:54:45.619Z,1.43
2023-03-26T23:57:12.592Z,1.13
2023-03-26T23:59:41.456Z,0.93
